sensor_id;sensor_type;location;lat;lon;timestamp;pressure;altitude;pressure_sealevel;temperature;humidity
28000;BME280;15328;50.860;10.562;2023-01-29T00:00:40;97588.50;;;-2.31;66.24
28000;BME280;15328;50.860;10.562;2023-01-29T00:05:40;97577.81;;;-2.39;65.43
28000;BME280;15328;50.860;10.562;2023-01-29T00:10:40;97579.47;;;-2.38;65.36
28000;BME280;15328;50.860;10.562;2023-01-29T00:15:41;97553.34;;;-2.49;65.82
28000;BME280;15328;50.860;10.562;2023-01-29T00:20:42;97548.22;;;-2.51;64.97
28000;BME280;15328;50.860;10.562;2023-01-29T00:25:43;97542.25;;;-2.64;65.28
28000;BME280;15328;50.860;10.562;2023-01-29T00:30:43;97544.03;;;-2.64;65.62
28000;BME280;15328;50.860;10.562;2023-01-29T00:35:44;97535.38;;;-2.65;65.52
28000;BME280;15328;50.860;10.562;2023-01-29T00:40:44;97518.94;;;-2.78;65.21
28000;BME280;15328;50.860;10.562;2023-01-29T00:46:03;97530.28;;;-2.79;64.63
28000;BME280;15328;50.860;10.562;2023-01-29T00:51:05;97530.28;;;-2.79;64.46
28000;BME280;15328;50.860;10.562;2023-01-29T00:56:06;97528.25;;;-2.87;64.46
28000;BME280;15328;50.860;10.562;2023-01-29T01:01:06;97518.16;;;-2.91;64.38
28000;BME280;15328;50.860;10.562;2023-01-29T01:06:08;97518.28;;;-3.05;63.38
28000;BME280;15328;50.860;10.562;2023-01-29T01:11:12;97500.41;;;-3.23;64.41
28000;BME280;15328;50.860;10.562;2023-01-29T01:16:15;97491.06;;;-3.25;64.54
28000;BME280;15328;50.860;10.562;2023-01-29T01:21:15;97482.41;;;-3.26;64.85
28000;BME280;15328;50.860;10.562;2023-01-29T01:26:16;97483.75;;;-3.20;64.37
28000;BME280;15328;50.860;10.562;2023-01-29T01:31:16;97480.75;;;-3.27;64.89
28000;BME280;15328;50.860;10.562;2023-01-29T01:36:17;97467.41;;;-3.22;64.86
28000;BME280;15328;50.860;10.562;2023-01-29T01:41:19;97469.84;;;-3.08;64.95
28000;BME280;15328;50.860;10.562;2023-01-29T01:46:21;97466.66;;;-3.12;64.44
28000;BME280;15328;50.860;10.562;2023-01-29T01:51:23;97468.13;;;-3.20;64.05
28000;BME280;15328;50.860;10.562;2023-01-29T01:56:29;97461.25;;;-3.21;64.28
28000;BME280;15328;50.860;10.562;2023-01-29T02:01:38;97464.19;;;-3.26;64.06
28000;BME280;15328;50.860;10.562;2023-01-29T02:06:42;97475.44;;;-3.38;63.44
28000;BME280;15328;50.860;10.562;2023-01-29T02:12:10;97484.94;;;-3.50;63.16
28000;BME280;15328;50.860;10.562;2023-01-29T02:17:18;97502.00;;;-3.71;62.79
28000;BME280;15328;50.860;10.562;2023-01-29T02:27:57;97523.59;;;-3.96;63.82
28000;BME280;15328;50.860;10.562;2023-01-29T02:48:54;97516.31;;;-4.03;64.99
28000;BME280;15328;50.860;10.562;2023-01-29T02:54:02;97499.16;;;-4.06;65.01
28000;BME280;15328;50.860;10.562;2023-01-29T02:59:17;97502.81;;;-3.96;65.70
28000;BME280;15328;50.860;10.562;2023-01-29T03:04:23;97490.75;;;-3.84;65.94
28000;BME280;15328;50.860;10.562;2023-01-29T03:09:39;97487.53;;;-3.75;65.92
28000;BME280;15328;50.860;10.562;2023-01-29T03:14:41;97499.47;;;-3.85;65.02
28000;BME280;15328;50.860;10.562;2023-01-29T03:20:02;97484.72;;;-3.85;65.44
28000;BME280;15328;50.860;10.562;2023-01-29T03:25:07;97487.94;;;-3.94;65.68
28000;BME280;15328;50.860;10.562;2023-01-29T03:30:30;97483.06;;;-3.73;65.72
28000;BME280;15328;50.860;10.562;2023-01-29T03:35:58;97469.63;;;-3.67;65.90
28000;BME280;15328;50.860;10.562;2023-01-29T03:41:06;97494.19;;;-3.58;65.86
28000;BME280;15328;50.860;10.562;2023-01-29T03:46:27;97477.34;;;-3.65;64.91
28000;BME280;15328;50.860;10.562;2023-01-29T03:52:01;97491.69;;;-3.72;65.31
28000;BME280;15328;50.860;10.562;2023-01-29T03:57:30;97495.94;;;-3.59;65.90
28000;BME280;15328;50.860;10.562;2023-01-29T04:02:38;97489.63;;;-3.55;65.00
28000;BME280;15328;50.860;10.562;2023-01-29T04:07:43;97490.03;;;-3.61;65.69
28000;BME280;15328;50.860;10.562;2023-01-29T04:12:49;97481.06;;;-3.57;65.11
28000;BME280;15328;50.860;10.562;2023-01-29T04:17:52;97470.47;;;-3.54;65.30
28000;BME280;15328;50.860;10.562;2023-01-29T04:22:54;97464.94;;;-3.49;65.13
28000;BME280;15328;50.860;10.562;2023-01-29T04:28:05;97467.97;;;-3.43;65.38
28000;BME280;15328;50.860;10.562;2023-01-29T04:44:19;97449.44;;;-3.63;65.34
28000;BME280;15328;50.860;10.562;2023-01-29T04:49:31;97436.34;;;-3.62;65.85
28000;BME280;15328;50.860;10.562;2023-01-29T04:59:44;97440.28;;;-3.56;65.09
28000;BME280;15328;50.860;10.562;2023-01-29T05:04:46;97435.88;;;-3.30;64.74
28000;BME280;15328;50.860;10.562;2023-01-29T05:09:47;97433.91;;;-3.39;64.60
28000;BME280;15328;50.860;10.562;2023-01-29T05:14:49;97435.25;;;-3.34;65.53
28000;BME280;15328;50.860;10.562;2023-01-29T05:19:51;97432.53;;;-3.32;64.88
28000;BME280;15328;50.860;10.562;2023-01-29T05:24:51;97427.34;;;-3.32;65.00
28000;BME280;15328;50.860;10.562;2023-01-29T05:29:52;97428.41;;;-3.48;65.25
28000;BME280;15328;50.860;10.562;2023-01-29T05:34:52;97426.50;;;-3.33;65.57
28000;BME280;15328;50.860;10.562;2023-01-29T05:39:53;97417.88;;;-3.33;65.62
28000;BME280;15328;50.860;10.562;2023-01-29T05:44:53;97422.56;;;-3.26;65.34
28000;BME280;15328;50.860;10.562;2023-01-29T05:49:53;97415.13;;;-3.19;65.69
28000;BME280;15328;50.860;10.562;2023-01-29T05:54:54;97420.13;;;-3.16;65.96
28000;BME280;15328;50.860;10.562;2023-01-29T05:59:54;97408.81;;;-3.28;65.58
28000;BME280;15328;50.860;10.562;2023-01-29T06:04:55;97395.56;;;-3.61;66.71
28000;BME280;15328;50.860;10.562;2023-01-29T06:09:55;97388.06;;;-3.66;67.13
28000;BME280;15328;50.860;10.562;2023-01-29T06:14:55;97380.81;;;-3.74;67.79
28000;BME280;15328;50.860;10.562;2023-01-29T06:19:56;97373.13;;;-3.75;68.56
28000;BME280;15328;50.860;10.562;2023-01-29T06:24:56;97389.44;;;-3.86;68.38
28000;BME280;15328;50.860;10.562;2023-01-29T06:29:56;97385.72;;;-3.82;68.82
28000;BME280;15328;50.860;10.562;2023-01-29T06:34:56;97405.84;;;-3.60;68.67
28000;BME280;15328;50.860;10.562;2023-01-29T06:39:57;97403.78;;;-3.55;67.37
28000;BME280;15328;50.860;10.562;2023-01-29T06:44:57;97429.53;;;-3.39;67.30
28000;BME280;15328;50.860;10.562;2023-01-29T06:49:57;97450.84;;;-3.21;66.95
28000;BME280;15328;50.860;10.562;2023-01-29T06:54:58;97444.75;;;-3.09;67.17
28000;BME280;15328;50.860;10.562;2023-01-29T06:59:58;97441.84;;;-3.04;66.52
28000;BME280;15328;50.860;10.562;2023-01-29T07:04:58;97435.69;;;-3.03;66.30
28000;BME280;15328;50.860;10.562;2023-01-29T07:09:59;97455.00;;;-3.19;66.56
28000;BME280;15328;50.860;10.562;2023-01-29T07:14:59;97482.34;;;-3.00;66.87
28000;BME280;15328;50.860;10.562;2023-01-29T07:19:59;97481.53;;;-3.01;65.69
28000;BME280;15328;50.860;10.562;2023-01-29T07:25:00;97462.75;;;-2.93;66.00
28000;BME280;15328;50.860;10.562;2023-01-29T07:30:00;97478.53;;;-2.84;65.11
28000;BME280;15328;50.860;10.562;2023-01-29T07:35:00;97489.69;;;-2.82;65.47
28000;BME280;15328;50.860;10.562;2023-01-29T07:40:01;97490.41;;;-2.80;65.38
28000;BME280;15328;50.860;10.562;2023-01-29T07:45:01;97498.00;;;-2.76;65.02
28000;BME280;15328;50.860;10.562;2023-01-29T07:50:02;97510.25;;;-2.66;65.22
28000;BME280;15328;50.860;10.562;2023-01-29T07:55:03;97505.31;;;-2.58;65.95
28000;BME280;15328;50.860;10.562;2023-01-29T08:00:04;97485.56;;;-2.49;66.03
28000;BME280;15328;50.860;10.562;2023-01-29T08:05:05;97470.47;;;-2.44;65.17
28000;BME280;15328;50.860;10.562;2023-01-29T08:10:05;97440.78;;;-2.54;65.62
28000;BME280;15328;50.860;10.562;2023-01-29T08:15:06;97435.66;;;-2.43;65.52
28000;BME280;15328;50.860;10.562;2023-01-29T08:20:07;97435.66;;;-2.32;65.82
28000;BME280;15328;50.860;10.562;2023-01-29T08:25:08;97450.53;;;-2.10;66.32
28000;BME280;15328;50.860;10.562;2023-01-29T08:30:09;97458.63;;;-2.02;65.25
28000;BME280;15328;50.860;10.562;2023-01-29T08:35:10;97448.00;;;-1.88;65.92
28000;BME280;15328;50.860;10.562;2023-01-29T08:40:10;97459.84;;;-1.72;65.34
28000;BME280;15328;50.860;10.562;2023-01-29T08:45:12;97467.13;;;-1.53;65.38
28000;BME280;15328;50.860;10.562;2023-01-29T08:50:13;97488.00;;;-1.42;65.49
28000;BME280;15328;50.860;10.562;2023-01-29T08:55:13;97504.97;;;-1.48;65.30
28000;BME280;15328;50.860;10.562;2023-01-29T09:00:14;97535.22;;;-1.57;64.88
28000;BME280;15328;50.860;10.562;2023-01-29T09:05:15;97520.66;;;-1.37;64.78
28000;BME280;15328;50.860;10.562;2023-01-29T09:10:15;97515.66;;;-1.40;65.41
28000;BME280;15328;50.860;10.562;2023-01-29T09:15:16;97519.09;;;-1.17;65.36
28000;BME280;15328;50.860;10.562;2023-01-29T09:20:16;97506.41;;;-1.21;64.57
28000;BME280;15328;50.860;10.562;2023-01-29T09:25:18;97483.50;;;-1.63;64.54
28000;BME280;15328;50.860;10.562;2023-01-29T09:30:21;97481.44;;;-1.70;66.11
28000;BME280;15328;50.860;10.562;2023-01-29T09:35:22;97486.72;;;-2.05;66.25
28000;BME280;15328;50.860;10.562;2023-01-29T09:45:26;97439.09;;;-2.31;67.59
28000;BME280;15328;50.860;10.562;2023-01-29T09:50:31;97440.31;;;-2.59;68.45
28000;BME280;15328;50.860;10.562;2023-01-29T09:55:39;97429.06;;;-2.60;69.15
28000;BME280;15328;50.860;10.562;2023-01-29T10:01:31;97451.94;;;-2.76;69.67
28000;BME280;15328;50.860;10.562;2023-01-29T10:12:19;97443.50;;;-3.03;71.19
28000;BME280;15328;50.860;10.562;2023-01-29T10:27:57;97414.13;;;-2.58;71.40
28000;BME280;15328;50.860;10.562;2023-01-29T10:33:01;97403.69;;;-2.69;70.91
28000;BME280;15328;50.860;10.562;2023-01-29T10:38:26;97386.50;;;-2.71;71.75
28000;BME280;15328;50.860;10.562;2023-01-29T10:43:41;97380.16;;;-2.56;71.20
28000;BME280;15328;50.860;10.562;2023-01-29T10:49:12;97384.66;;;-2.47;71.32
28000;BME280;15328;50.860;10.562;2023-01-29T10:54:23;97386.97;;;-2.42;70.96
28000;BME280;15328;50.860;10.562;2023-01-29T10:59:50;97367.19;;;-2.34;71.20
28000;BME280;15328;50.860;10.562;2023-01-29T11:04:53;97365.69;;;-2.03;72.00
28000;BME280;15328;50.860;10.562;2023-01-29T11:10:07;97367.09;;;-2.10;70.62
28000;BME280;15328;50.860;10.562;2023-01-29T11:15:23;97363.28;;;-2.28;69.48
28000;BME280;15328;50.860;10.562;2023-01-29T11:20:27;97337.25;;;-2.06;68.61
28000;BME280;15328;50.860;10.562;2023-01-29T11:25:28;97332.03;;;-1.83;68.49
28000;BME280;15328;50.860;10.562;2023-01-29T11:30:35;97322.44;;;-1.83;67.73
28000;BME280;15328;50.860;10.562;2023-01-29T11:35:37;97327.06;;;-1.87;67.74
28000;BME280;15328;50.860;10.562;2023-01-29T11:40:38;97310.94;;;-1.92;67.66
28000;BME280;15328;50.860;10.562;2023-01-29T11:45:39;97308.78;;;-2.20;71.17
28000;BME280;15328;50.860;10.562;2023-01-29T11:50:40;97291.31;;;-2.53;70.50
28000;BME280;15328;50.860;10.562;2023-01-29T11:55:44;97291.69;;;-2.58;70.64
28000;BME280;15328;50.860;10.562;2023-01-29T12:00:52;97277.94;;;-2.49;71.19
28000;BME280;15328;50.860;10.562;2023-01-29T12:06:00;97280.09;;;-2.31;69.54
28000;BME280;15328;50.860;10.562;2023-01-29T12:11:28;97262.91;;;-2.56;69.61
28000;BME280;15328;50.860;10.562;2023-01-29T12:16:32;97262.34;;;-2.37;69.35
28000;BME280;15328;50.860;10.562;2023-01-29T12:21:44;97259.50;;;-2.45;69.33
28000;BME280;15328;50.860;10.562;2023-01-29T12:26:57;97252.75;;;-2.14;68.72
28000;BME280;15328;50.860;10.562;2023-01-29T12:37:44;97246.31;;;-2.22;67.95
28000;BME280;15328;50.860;10.562;2023-01-29T12:42:50;97245.03;;;-2.38;68.33
28000;BME280;15328;50.860;10.562;2023-01-29T12:47:59;97233.53;;;-2.25;68.75
28000;BME280;15328;50.860;10.562;2023-01-29T12:58:29;97212.88;;;-1.94;68.77
28000;BME280;15328;50.860;10.562;2023-01-29T13:03:49;97188.81;;;-1.98;67.89
28000;BME280;15328;50.860;10.562;2023-01-29T13:08:55;97191.00;;;-2.25;69.30
28000;BME280;15328;50.860;10.562;2023-01-29T13:14:04;97198.13;;;-2.38;69.46
28000;BME280;15328;50.860;10.562;2023-01-29T13:19:24;97191.47;;;-2.09;69.75
28000;BME280;15328;50.860;10.562;2023-01-29T13:24:36;97193.63;;;-1.71;67.68
28000;BME280;15328;50.860;10.562;2023-01-29T13:29:37;97194.56;;;-1.61;67.48
28000;BME280;15328;50.860;10.562;2023-01-29T13:34:45;97178.59;;;-1.46;66.85
28000;BME280;15328;50.860;10.562;2023-01-29T13:39:49;97181.53;;;-1.19;66.11
28000;BME280;15328;50.860;10.562;2023-01-29T13:44:55;97178.28;;;-1.11;65.69
28000;BME280;15328;50.860;10.562;2023-01-29T13:50:30;97179.66;;;-0.96;65.99
28000;BME280;15328;50.860;10.562;2023-01-29T13:55:37;97166.44;;;-0.95;65.02
28000;BME280;15328;50.860;10.562;2023-01-29T14:06:05;97135.25;;;-0.66;65.32
28000;BME280;15328;50.860;10.562;2023-01-29T14:36:41;97116.97;;;-0.06;62.94
28000;BME280;15328;50.860;10.562;2023-01-29T14:41:43;97115.03;;;-0.14;63.86
28000;BME280;15328;50.860;10.562;2023-01-29T14:46:43;97113.25;;;-0.23;62.70
28000;BME280;15328;50.860;10.562;2023-01-29T14:51:44;97118.06;;;-0.09;63.03
28000;BME280;15328;50.860;10.562;2023-01-29T15:02:15;97125.78;;;-0.17;62.69
28000;BME280;15328;50.860;10.562;2023-01-29T15:07:55;97114.63;;;-0.09;62.77
28000;BME280;15328;50.860;10.562;2023-01-29T15:13:28;97116.56;;;-0.02;62.65
28000;BME280;15328;50.860;10.562;2023-01-29T15:18:51;97100.03;;;-0.12;61.78
28000;BME280;15328;50.860;10.562;2023-01-29T15:24:03;97108.97;;;-0.24;62.59
28000;BME280;15328;50.860;10.562;2023-01-29T15:29:04;97107.00;;;-0.41;62.45
28000;BME280;15328;50.860;10.562;2023-01-29T15:34:07;97100.88;;;-0.61;61.88
28000;BME280;15328;50.860;10.562;2023-01-29T15:44:17;97102.59;;;-0.81;61.92
28000;BME280;15328;50.860;10.562;2023-01-29T15:49:38;97092.56;;;-0.76;62.72
28000;BME280;15328;50.860;10.562;2023-01-29T15:54:39;97089.41;;;-0.79;63.27
28000;BME280;15328;50.860;10.562;2023-01-29T15:59:43;97085.31;;;-0.72;63.10
28000;BME280;15328;50.860;10.562;2023-01-29T16:04:44;97090.72;;;-0.85;62.97
28000;BME280;15328;50.860;10.562;2023-01-29T16:09:49;97095.09;;;-0.95;63.07
28000;BME280;15328;50.860;10.562;2023-01-29T16:14:54;97112.56;;;-0.96;62.97
28000;BME280;15328;50.860;10.562;2023-01-29T16:20:03;97122.31;;;-0.98;63.59
28000;BME280;15328;50.860;10.562;2023-01-29T16:25:07;97119.53;;;-1.06;63.96
28000;BME280;15328;50.860;10.562;2023-01-29T16:30:16;97110.41;;;-1.11;63.00
28000;BME280;15328;50.860;10.562;2023-01-29T16:35:17;97098.94;;;-1.20;64.67
28000;BME280;15328;50.860;10.562;2023-01-29T16:40:26;97098.94;;;-1.20;64.91
28000;BME280;15328;50.860;10.562;2023-01-29T16:45:27;97088.19;;;-1.27;63.93
28000;BME280;15328;50.860;10.562;2023-01-29T16:50:35;97092.41;;;-1.35;63.70
28000;BME280;15328;50.860;10.562;2023-01-29T16:55:40;97086.28;;;-1.45;64.30
28000;BME280;15328;50.860;10.562;2023-01-29T17:00:51;97095.63;;;-1.43;64.58
28000;BME280;15328;50.860;10.562;2023-01-29T17:05:52;97110.03;;;-1.48;65.09
28000;BME280;15328;50.860;10.562;2023-01-29T17:10:53;97113.84;;;-1.52;65.00
28000;BME280;15328;50.860;10.562;2023-01-29T17:15:58;97128.94;;;-1.56;65.57
28000;BME280;15328;50.860;10.562;2023-01-29T17:20:59;97129.19;;;-1.59;65.09
28000;BME280;15328;50.860;10.562;2023-01-29T17:25:59;97116.84;;;-1.57;65.98
28000;BME280;15328;50.860;10.562;2023-01-29T17:30:59;97112.19;;;-1.53;65.85
28000;BME280;15328;50.860;10.562;2023-01-29T17:36:00;97109.22;;;-1.49;66.63
28000;BME280;15328;50.860;10.562;2023-01-29T17:46:20;97069.53;;;-1.43;65.96
28000;BME280;15328;50.860;10.562;2023-01-29T17:51:20;97066.22;;;-1.45;65.74
28000;BME280;15328;50.860;10.562;2023-01-29T17:56:24;97055.41;;;-1.40;66.97
28000;BME280;15328;50.860;10.562;2023-01-29T18:01:29;97051.28;;;-1.43;65.71
28000;BME280;15328;50.860;10.562;2023-01-29T18:06:29;97037.66;;;-1.46;65.98
28000;BME280;15328;50.860;10.562;2023-01-29T18:11:33;97018.16;;;-1.42;65.75
28000;BME280;15328;50.860;10.562;2023-01-29T18:16:34;97003.56;;;-1.54;65.62
28000;BME280;15328;50.860;10.562;2023-01-29T18:21:37;97009.47;;;-1.73;65.10
28000;BME280;15328;50.860;10.562;2023-01-29T18:26:38;96993.50;;;-1.59;65.35
28000;BME280;15328;50.860;10.562;2023-01-29T18:31:38;96983.19;;;-1.61;65.05
28000;BME280;15328;50.860;10.562;2023-01-29T18:36:38;96966.59;;;-1.60;64.33
28000;BME280;15328;50.860;10.562;2023-01-29T18:41:39;96966.97;;;-1.64;64.68
28000;BME280;15328;50.860;10.562;2023-01-29T18:46:39;96949.41;;;-1.62;64.66
28000;BME280;15328;50.860;10.562;2023-01-29T18:51:40;96948.31;;;-1.60;65.65
28000;BME280;15328;50.860;10.562;2023-01-29T18:56:40;96929.91;;;-1.89;65.43
28000;BME280;15328;50.860;10.562;2023-01-29T19:01:40;96936.44;;;-1.73;65.42
28000;BME280;15328;50.860;10.562;2023-01-29T19:06:44;96938.03;;;-1.82;64.53
28000;BME280;15328;50.860;10.562;2023-01-29T19:11:49;96920.09;;;-1.75;64.60
28000;BME280;15328;50.860;10.562;2023-01-29T19:16:53;96918.31;;;-1.75;64.57
28000;BME280;15328;50.860;10.562;2023-01-29T19:21:53;96931.47;;;-1.76;64.64
28000;BME280;15328;50.860;10.562;2023-01-29T19:26:53;96919.38;;;-1.77;65.12
28000;BME280;15328;50.860;10.562;2023-01-29T19:31:54;96934.09;;;-1.76;63.67
28000;BME280;15328;50.860;10.562;2023-01-29T19:36:55;96916.59;;;-1.85;64.77
28000;BME280;15328;50.860;10.562;2023-01-29T19:41:55;96930.66;;;-1.98;64.92
28000;BME280;15328;50.860;10.562;2023-01-29T19:46:55;96916.47;;;-1.84;64.67
28000;BME280;15328;50.860;10.562;2023-01-29T19:51:55;96913.78;;;-1.94;64.70
28000;BME280;15328;50.860;10.562;2023-01-29T19:56:58;96892.50;;;-2.20;64.45
28000;BME280;15328;50.860;10.562;2023-01-29T20:01:58;96892.06;;;-2.25;64.25
28000;BME280;15328;50.860;10.562;2023-01-29T20:06:58;96902.38;;;-2.23;65.14
28000;BME280;15328;50.860;10.562;2023-01-29T20:11:59;96910.44;;;-2.05;65.35
28000;BME280;15328;50.860;10.562;2023-01-29T20:16:59;96914.56;;;-2.03;65.58
28000;BME280;15328;50.860;10.562;2023-01-29T20:21:59;96924.09;;;-1.92;65.74
28000;BME280;15328;50.860;10.562;2023-01-29T20:27:00;96926.72;;;-1.92;65.32
28000;BME280;15328;50.860;10.562;2023-01-29T20:32:02;96936.25;;;-1.81;65.55
28000;BME280;15328;50.860;10.562;2023-01-29T20:37:03;96914.97;;;-1.87;65.15
28000;BME280;15328;50.860;10.562;2023-01-29T20:42:03;96899.19;;;-2.06;65.89
28000;BME280;15328;50.860;10.562;2023-01-29T20:47:04;96860.66;;;-2.23;65.60
28000;BME280;15328;50.860;10.562;2023-01-29T20:52:04;96832.94;;;-2.87;67.75
28000;BME280;15328;50.860;10.562;2023-01-29T20:57:06;96818.22;;;-3.08;69.75
28000;BME280;15328;50.860;10.562;2023-01-29T21:02:09;96835.38;;;-3.06;68.86
28000;BME280;15328;50.860;10.562;2023-01-29T21:07:09;96822.88;;;-2.59;69.16
28000;BME280;15328;50.860;10.562;2023-01-29T21:12:10;96827.00;;;-2.57;67.89
28000;BME280;15328;50.860;10.562;2023-01-29T21:17:10;96799.50;;;-2.70;68.08
28000;BME280;15328;50.860;10.562;2023-01-29T21:22:10;96784.69;;;-2.91;69.33
28000;BME280;15328;50.860;10.562;2023-01-29T21:27:11;96770.53;;;-2.98;70.39
28000;BME280;15328;50.860;10.562;2023-01-29T21:32:12;96764.72;;;-3.22;71.76
28000;BME280;15328;50.860;10.562;2023-01-29T21:37:12;96741.16;;;-3.21;71.77
28000;BME280;15328;50.860;10.562;2023-01-29T21:42:13;96720.19;;;-3.40;72.82
28000;BME280;15328;50.860;10.562;2023-01-29T21:47:31;96706.84;;;-3.47;73.08
28000;BME280;15328;50.860;10.562;2023-01-29T21:52:32;96707.25;;;-3.62;73.38
28000;BME280;15328;50.860;10.562;2023-01-29T21:57:32;96714.94;;;-3.61;73.91
28000;BME280;15328;50.860;10.562;2023-01-29T22:02:32;96701.72;;;-3.69;73.66
28000;BME280;15328;50.860;10.562;2023-01-29T22:07:33;96695.88;;;-3.50;74.10
28000;BME280;15328;50.860;10.562;2023-01-29T22:12:33;96694.88;;;-3.38;73.29
28000;BME280;15328;50.860;10.562;2023-01-29T22:17:34;96685.91;;;-3.45;73.21
28000;BME280;15328;50.860;10.562;2023-01-29T22:22:34;96661.44;;;-3.43;73.63
28000;BME280;15328;50.860;10.562;2023-01-29T22:27:35;96661.31;;;-3.41;73.35
28000;BME280;15328;50.860;10.562;2023-01-29T22:32:36;96675.88;;;-3.29;72.70
28000;BME280;15328;50.860;10.562;2023-01-29T22:37:36;96659.41;;;-3.39;73.40
28000;BME280;15328;50.860;10.562;2023-01-29T22:42:36;96654.34;;;-3.20;72.95
28000;BME280;15328;50.860;10.562;2023-01-29T22:47:37;96641.81;;;-3.05;72.53
28000;BME280;15328;50.860;10.562;2023-01-29T22:52:37;96620.53;;;-3.10;71.48
28000;BME280;15328;50.860;10.562;2023-01-29T22:57:38;96631.88;;;-2.90;71.37
28000;BME280;15328;50.860;10.562;2023-01-29T23:02:39;96615.88;;;-2.86;70.44
28000;BME280;15328;50.860;10.562;2023-01-29T23:07:40;96625.19;;;-3.14;71.41
28000;BME280;15328;50.860;10.562;2023-01-29T23:12:41;96620.50;;;-3.20;71.47
28000;BME280;15328;50.860;10.562;2023-01-29T23:17:41;96609.25;;;-3.62;73.60
28000;BME280;15328;50.860;10.562;2023-01-29T23:22:42;96623.19;;;-3.52;73.36
28000;BME280;15328;50.860;10.562;2023-01-29T23:27:42;96636.91;;;-3.61;73.97
28000;BME280;15328;50.860;10.562;2023-01-29T23:32:42;96656.66;;;-3.37;73.22
28000;BME280;15328;50.860;10.562;2023-01-29T23:37:43;96645.06;;;-3.33;73.30
28000;BME280;15328;50.860;10.562;2023-01-29T23:42:43;96636.28;;;-3.32;74.09
28000;BME280;15328;50.860;10.562;2023-01-29T23:47:43;96619.41;;;-3.17;73.44
28000;BME280;15328;50.860;10.562;2023-01-29T23:52:43;96599.97;;;-2.92;72.38
28000;BME280;15328;50.860;10.562;2023-01-29T23:57:44;96590.97;;;-3.09;73.50
